Port Wash, New York
Current Conditions -  °F | °C
As of 10:51 AM on Sunday 23 Nov 2014 (Local Time) from KLGA Reporting Station
Broken Clouds Broken Clouds  
Wind Chill:   Ceiling: 17000
Heat Index:   Visibility: 10mi
Dew Point: -4°   Wind: 8mph
Humidity: 38%   Direction: 180°S
Pressure: 30.18"   Gusts: NA
Location:  40.8387°N, 73.6912°W
Report Text: KLGA 231551Z 18007KT 10SM FEW055 SCT085 SCT110 BKN170 BKN250 09/M04 A3018 RMK AO2 SLP220 T00941044
Loading
Personal Weather Stations






























Interactive Weather Map New forecast layout! Learn more

10-Day Weather Forecast

Advertisements
Track Severe Weather on mobile